createdAt,value
2019-05-12T00:00:34.654Z,99.99
2019-05-12T00:01:34.621Z,99.99
2019-05-12T00:02:34.651Z,99.99
2019-05-12T00:03:34.781Z,99.99
2019-05-12T00:04:34.767Z,99.99
2019-05-12T00:05:34.631Z,99.99
2019-05-12T00:06:34.655Z,99.99
2019-05-12T00:07:34.701Z,99.99
2019-05-12T00:08:34.676Z,99.99
2019-05-12T00:09:34.737Z,99.99
2019-05-12T00:10:34.659Z,99.99
2019-05-12T00:11:34.746Z,99.99
2019-05-12T00:12:34.661Z,99.99
2019-05-12T00:13:34.657Z,99.99
2019-05-12T00:14:34.834Z,99.99
2019-05-12T00:15:34.677Z,99.99
2019-05-12T00:16:34.648Z,99.99
2019-05-12T00:17:41.506Z,99.99
2019-05-12T00:18:34.655Z,99.99
2019-05-12T00:19:34.661Z,99.99
2019-05-12T00:20:34.705Z,99.99
2019-05-12T00:21:37.542Z,99.99
2019-05-12T00:22:34.678Z,99.99
2019-05-12T00:23:34.711Z,99.99
2019-05-12T00:24:34.690Z,99.99
2019-05-12T00:25:34.717Z,99.99
2019-05-12T00:26:34.683Z,99.99
2019-05-12T00:27:34.715Z,99.99
2019-05-12T00:28:34.841Z,99.99
2019-05-12T00:29:34.726Z,99.99
2019-05-12T00:30:34.720Z,99.99
2019-05-12T00:31:34.703Z,99.99
2019-05-12T00:32:34.709Z,99.99
2019-05-12T00:33:34.712Z,99.99
2019-05-12T00:34:34.718Z,99.99
2019-05-12T00:35:34.724Z,99.99
2019-05-12T00:36:34.877Z,99.99
2019-05-12T00:37:34.697Z,99.99
2019-05-12T00:42:51.115Z,99.99
2019-05-12T00:43:03.653Z,99.99
2019-05-12T00:44:03.660Z,99.99
2019-05-12T00:45:03.620Z,99.99
2019-05-12T00:46:03.668Z,99.99
2019-05-12T00:47:03.659Z,99.99
2019-05-12T00:48:03.705Z,99.99
2019-05-12T00:49:03.769Z,99.99
2019-05-12T00:50:03.681Z,99.99
2019-05-12T00:51:03.680Z,99.99
2019-05-12T00:52:03.706Z,99.99
2019-05-12T00:53:03.689Z,99.99
2019-05-12T00:54:03.658Z,99.99
2019-05-12T00:55:03.663Z,99.99
2019-05-12T00:56:03.705Z,99.99
2019-05-12T00:57:03.677Z,99.99
2019-05-12T00:58:03.686Z,99.99
2019-05-12T00:59:03.707Z,99.99
2019-05-12T01:00:03.732Z,99.99
2019-05-12T01:01:03.683Z,99.99
2019-05-12T01:02:03.670Z,99.99
2019-05-12T01:03:03.720Z,99.99
2019-05-12T01:04:03.664Z,99.99
2019-05-12T01:05:03.711Z,99.99
2019-05-12T01:06:03.696Z,99.99
2019-05-12T01:07:03.745Z,99.99
2019-05-12T01:08:03.689Z,99.99
2019-05-12T01:09:03.737Z,99.99
2019-05-12T01:10:08.603Z,99.99
2019-05-12T01:11:03.733Z,99.99
2019-05-12T01:12:03.717Z,99.99
2019-05-12T01:13:03.724Z,99.99
2019-05-12T01:14:03.667Z,99.99
2019-05-12T01:15:03.716Z,99.99
2019-05-12T01:16:03.777Z,99.99
2019-05-12T01:17:03.743Z,99.99
2019-05-12T01:18:03.689Z,99.99
2019-05-12T01:19:03.681Z,99.99
2019-05-12T01:20:03.731Z,99.99
2019-05-12T01:21:03.750Z,99.99
2019-05-12T01:22:03.719Z,99.99
2019-05-12T01:23:03.682Z,99.99
2019-05-12T01:24:08.646Z,99.99
2019-05-12T01:25:03.736Z,99.99
2019-05-12T01:26:03.745Z,99.99
2019-05-12T01:27:03.750Z,99.99
2019-05-12T01:28:03.715Z,99.99
2019-05-12T01:33:20.246Z,99.99
2019-05-12T01:33:33.542Z,99.99
2019-05-12T01:34:33.586Z,99.99
2019-05-12T01:35:33.537Z,99.99
2019-05-12T01:36:33.548Z,99.99
2019-05-12T01:37:33.875Z,99.99
2019-05-12T01:38:33.514Z,99.99
2019-05-12T01:39:33.526Z,99.99
2019-05-12T01:40:33.531Z,99.99
2019-05-12T01:41:33.538Z,99.99
2019-05-12T01:42:33.521Z,99.99
2019-05-12T01:47:03.836Z,99.99
2019-05-12T01:48:03.824Z,99.99
2019-05-12T01:49:03.829Z,99.99
2019-05-12T01:50:03.860Z,99.99
2019-05-12T01:51:03.890Z,99.99
2019-05-12T01:52:03.839Z,99.99
2019-05-12T01:53:03.824Z,99.99
2019-05-12T01:54:15.234Z,99.99
2019-05-12T01:55:03.880Z,99.99
2019-05-12T01:56:03.846Z,99.99
2019-05-12T01:57:03.905Z,99.99
2019-05-12T01:58:03.858Z,99.99
2019-05-12T01:59:03.842Z,99.99
2019-05-12T02:00:03.849Z,99.99
2019-05-12T02:01:08.034Z,99.99
2019-05-12T02:02:03.859Z,99.99
2019-05-12T02:03:03.889Z,99.99
2019-05-12T02:04:03.829Z,99.99
2019-05-12T02:05:04.273Z,99.99
2019-05-12T02:06:03.842Z,99.99
2019-05-12T02:07:03.842Z,99.99
2019-05-12T02:08:03.860Z,99.99
2019-05-12T02:09:03.843Z,99.99
2019-05-12T02:10:03.917Z,99.99
2019-05-12T02:11:03.857Z,99.99
2019-05-12T02:12:04.171Z,99.99
2019-05-12T02:13:03.850Z,99.99
2019-05-12T02:14:03.901Z,99.99
2019-05-12T02:15:03.848Z,99.99
2019-05-12T02:16:03.847Z,99.99
2019-05-12T02:17:03.909Z,99.99
2019-05-12T02:18:03.925Z,99.99
2019-05-12T02:19:03.896Z,99.99
2019-05-12T02:20:03.883Z,99.99
2019-05-12T02:21:03.902Z,99.99
2019-05-12T02:22:03.876Z,99.99
2019-05-12T02:23:04.142Z,99.99
2019-05-12T02:24:03.905Z,99.99
2019-05-12T02:25:04.010Z,99.99
2019-05-12T02:26:03.856Z,99.99
2019-05-12T02:27:03.882Z,99.99
2019-05-12T02:28:03.887Z,99.99
2019-05-12T02:29:03.891Z,99.99
2019-05-12T02:30:03.908Z,99.99
2019-05-12T02:31:03.906Z,99.99
2019-05-12T02:32:03.900Z,99.99
2019-05-12T02:33:09.035Z,99.99
2019-05-12T02:34:05.625Z,99.99
2019-05-12T02:35:05.720Z,99.99
2019-05-12T02:36:07.277Z,99.99
2019-05-12T02:37:07.880Z,99.99
2019-05-12T02:38:07.157Z,99.99
2019-05-12T02:39:05.325Z,99.99
2019-05-12T02:40:07.962Z,99.99
2019-05-12T02:41:07.230Z,99.99
2019-05-12T02:42:07.791Z,99.99
2019-05-12T02:43:05.239Z,99.99
2019-05-12T02:44:05.197Z,99.99
2019-05-12T02:45:05.443Z,99.99
2019-05-12T02:46:07.355Z,99.99
2019-05-12T02:47:07.599Z,99.99
2019-05-12T02:48:04.974Z,99.99
2019-05-12T02:49:07.392Z,99.99
2019-05-12T02:50:05.262Z,99.99
2019-05-12T02:51:07.971Z,99.99
2019-05-12T02:52:05.075Z,99.99
2019-05-12T02:53:05.101Z,99.99
2019-05-12T02:54:05.414Z,99.99
2019-05-12T02:55:08.714Z,99.99
2019-05-12T02:56:07.496Z,99.99
2019-05-12T02:57:07.008Z,99.99
2019-05-12T02:58:07.384Z,99.99
2019-05-12T02:59:07.726Z,99.99
2019-05-12T03:00:07.672Z,99.99
2019-05-12T03:01:07.884Z,99.99
2019-05-12T03:02:05.221Z,99.99
2019-05-12T03:03:05.345Z,99.99
2019-05-12T03:04:05.609Z,99.99
2019-05-12T03:05:05.507Z,99.99
2019-05-12T03:06:05.346Z,99.99
2019-05-12T03:07:08.680Z,99.99
2019-05-12T03:08:07.463Z,99.99
2019-05-12T03:09:07.422Z,99.99
2019-05-12T03:10:07.778Z,99.99
2019-05-12T03:11:24.758Z,99.99
2019-05-12T03:12:25.543Z,99.99
2019-05-12T03:13:25.241Z,99.99
2019-05-12T03:14:25.188Z,99.99
2019-05-12T03:15:25.023Z,99.99
2019-05-12T03:16:25.619Z,99.99
2019-05-12T03:17:27.744Z,99.99
2019-05-12T03:18:25.116Z,99.99
2019-05-12T03:19:25.196Z,99.99
2019-05-12T03:20:26.828Z,99.99
2019-05-12T03:21:27.084Z,99.99
2019-05-12T03:22:27.763Z,99.99
2019-05-12T03:23:27.293Z,99.99
2019-05-12T03:24:24.882Z,99.99
2019-05-12T03:25:35.054Z,99.99
2019-05-12T03:26:27.172Z,99.99
2019-05-12T03:27:25.489Z,99.99
2019-05-12T03:28:25.405Z,99.99
2019-05-12T03:29:25.026Z,99.99
2019-05-12T03:30:28.862Z,99.99
2019-05-12T03:31:38.646Z,99.99
2019-05-12T03:32:29.773Z,99.99
2019-05-12T03:33:35.624Z,99.99
2019-05-12T03:34:28.977Z,99.99
2019-05-12T03:35:31.850Z,99.99
2019-05-12T03:36:31.548Z,99.99
2019-05-12T03:37:30.421Z,99.99
2019-05-12T03:38:24.765Z,99.99
2019-05-12T03:39:24.972Z,99.99
2019-05-12T03:40:27.443Z,99.99
2019-05-12T03:41:25.020Z,99.99
2019-05-12T03:42:27.604Z,99.99
2019-05-12T03:43:26.971Z,99.99
2019-05-12T03:44:25.120Z,99.99
2019-05-12T03:45:25.100Z,99.99
2019-05-12T03:46:27.402Z,99.99
2019-05-12T03:47:25.024Z,99.99
2019-05-12T03:48:25.184Z,99.99
2019-05-12T03:49:26.995Z,99.99
2019-05-12T03:50:26.922Z,99.99
2019-05-12T03:51:27.788Z,99.99
2019-05-12T03:52:27.166Z,99.99
2019-05-12T03:53:27.145Z,99.99
2019-05-12T03:54:26.970Z,99.99
2019-05-12T03:55:42.102Z,99.99
2019-05-12T03:56:25.817Z,99.99
2019-05-12T03:57:25.260Z,99.99
2019-05-12T03:58:25.504Z,99.99
2019-05-12T03:59:25.519Z,99.99
2019-05-12T04:00:27.262Z,99.99
2019-05-12T04:01:25.434Z,99.99
2019-05-12T04:02:25.048Z,99.99
2019-05-12T04:03:27.228Z,99.99
2019-05-12T04:04:27.013Z,99.99
2019-05-12T04:05:26.886Z,99.99
2019-05-12T04:06:27.047Z,99.99
2019-05-12T04:07:26.969Z,99.99
2019-05-12T04:08:27.243Z,99.99
2019-05-12T04:09:27.215Z,99.99
2019-05-12T04:10:27.296Z,99.99
2019-05-12T04:11:24.901Z,99.99
2019-05-12T04:12:25.394Z,99.99
2019-05-12T04:13:26.425Z,99.99
2019-05-12T04:14:25.162Z,99.99
2019-05-12T04:15:25.495Z,99.99
2019-05-12T04:16:27.295Z,99.99
2019-05-12T04:17:28.980Z,99.99
2019-05-12T04:18:27.269Z,99.99
2019-05-12T04:19:24.861Z,99.99
2019-05-12T04:20:25.355Z,99.99
2019-05-12T04:21:26.962Z,99.99
2019-05-12T04:22:27.461Z,99.99
2019-05-12T04:23:27.344Z,99.99
2019-05-12T04:24:27.523Z,99.99
2019-05-12T04:25:46.149Z,99.99
2019-05-12T04:26:27.883Z,99.99
2019-05-12T04:27:25.049Z,99.99
2019-05-12T04:28:27.132Z,99.99
2019-05-12T04:29:27.571Z,99.99
2019-05-12T04:30:27.555Z,99.99
2019-05-12T04:31:27.334Z,99.99
2019-05-12T04:32:24.890Z,99.99
2019-05-12T04:33:25.623Z,99.99
2019-05-12T04:34:25.036Z,99.99
2019-05-12T04:35:25.087Z,99.99
2019-05-12T04:36:27.268Z,99.99
2019-05-12T04:37:24.887Z,99.99
2019-05-12T04:38:27.467Z,99.99
2019-05-12T04:39:25.241Z,99.99
2019-05-12T04:40:27.272Z,99.99
2019-05-12T04:41:25.940Z,99.99
2019-05-12T04:42:27.672Z,99.99
2019-05-12T04:43:27.911Z,99.99
2019-05-12T04:44:25.045Z,99.99
2019-05-12T04:45:25.439Z,99.99
2019-05-12T04:46:25.174Z,99.99
2019-05-12T04:47:25.211Z,99.99
2019-05-12T04:48:25.667Z,99.99
2019-05-12T04:49:27.553Z,99.99
2019-05-12T04:50:27.171Z,99.99
2019-05-12T04:51:25.836Z,99.99
2019-05-12T04:52:27.409Z,99.99
2019-05-12T04:53:27.740Z,99.99
2019-05-12T04:54:27.214Z,99.99
2019-05-12T04:55:25.532Z,99.99
2019-05-12T04:56:27.459Z,99.99
2019-05-12T04:57:25.342Z,99.99
2019-05-12T04:58:25.433Z,99.99
2019-05-12T04:59:25.346Z,99.99
2019-05-12T05:00:25.662Z,99.99
2019-05-12T05:01:25.278Z,99.99
2019-05-12T05:02:27.531Z,99.99
2019-05-12T05:03:27.369Z,99.99
2019-05-12T05:04:26.988Z,99.99
2019-05-12T05:05:24.799Z,99.99
2019-05-12T05:06:25.271Z,99.99
2019-05-12T05:07:26.966Z,99.99
2019-05-12T05:08:26.921Z,99.99
2019-05-12T05:09:27.189Z,99.99
2019-05-12T05:10:24.894Z,99.99
2019-05-12T05:11:24.907Z,99.99
2019-05-12T05:12:26.452Z,99.99
2019-05-12T05:13:27.158Z,99.99
2019-05-12T05:14:24.718Z,99.99
2019-05-12T05:15:24.923Z,99.99
2019-05-12T05:16:24.811Z,99.99
2019-05-12T05:17:26.958Z,99.99
2019-05-12T05:18:26.393Z,99.99
2019-05-12T05:19:24.446Z,99.99
2019-05-12T05:20:26.590Z,99.99
2019-05-12T05:21:24.114Z,99.99
2019-05-12T05:22:24.299Z,99.99
2019-05-12T05:23:24.203Z,99.99
2019-05-12T05:24:26.143Z,99.99
2019-05-12T05:25:26.245Z,99.99
2019-05-12T05:26:33.638Z,99.99
2019-05-12T05:27:24.651Z,99.99
2019-05-12T05:28:26.226Z,99.99
2019-05-12T05:29:24.132Z,99.99
2019-05-12T05:30:24.347Z,99.99
2019-05-12T05:31:24.378Z,99.99
2019-05-12T05:32:25.924Z,99.99
2019-05-12T05:33:26.400Z,99.99
2019-05-12T05:34:26.202Z,99.99
2019-05-12T05:35:28.743Z,99.99
2019-05-12T05:36:24.962Z,99.99
2019-05-12T05:37:30.670Z,99.99
2019-05-12T05:38:26.314Z,99.99
2019-05-12T05:39:26.902Z,99.99
2019-05-12T05:40:31.643Z,99.99
2019-05-12T05:41:26.627Z,99.99
2019-05-12T05:42:28.232Z,99.99
2019-05-12T05:43:24.225Z,99.99
2019-05-12T05:44:24.144Z,99.99
2019-05-12T05:45:28.487Z,99.99
2019-05-12T05:46:24.189Z,99.99
2019-05-12T05:47:30.330Z,99.99
2019-05-12T05:48:26.704Z,99.99
2019-05-12T05:49:26.409Z,99.99
2019-05-12T05:50:30.978Z,99.99
2019-05-12T05:51:26.423Z,99.99
2019-05-12T05:52:38.594Z,99.99
2019-05-12T05:53:24.325Z,99.99
2019-05-12T05:54:35.780Z,99.99
2019-05-12T05:55:25.993Z,99.99
2019-05-12T05:56:45.252Z,99.99
2019-05-12T05:57:30.410Z,99.99
2019-05-12T05:58:26.088Z,99.99
2019-05-12T05:59:36.673Z,99.99
2019-05-12T06:00:28.308Z,99.99
2019-05-12T06:01:27.015Z,99.99
2019-05-12T06:02:31.378Z,99.99
2019-05-12T06:03:30.188Z,99.99
2019-05-12T06:04:26.409Z,99.99
2019-05-12T06:05:34.024Z,99.99
2019-05-12T06:06:26.350Z,99.99
2019-05-12T06:07:34.582Z,99.99
2019-05-12T06:08:26.325Z,99.99
2019-05-12T06:09:26.178Z,99.99
2019-05-12T06:10:40.226Z,99.99
2019-05-12T06:11:29.234Z,99.99
2019-05-12T06:12:24.081Z,99.99
2019-05-12T06:13:34.515Z,99.99
2019-05-12T06:14:26.457Z,99.99
2019-05-12T06:15:29.651Z,99.99
2019-05-12T06:16:27.604Z,99.99
2019-05-12T06:17:28.688Z,99.99
2019-05-12T06:18:28.909Z,99.99
2019-05-12T06:19:28.288Z,99.99
2019-05-12T06:20:26.389Z,99.99
2019-05-12T06:21:24.252Z,99.99
2019-05-12T06:22:26.367Z,99.99
2019-05-12T06:23:28.874Z,99.99
2019-05-12T06:24:24.485Z,99.99
2019-05-12T06:25:26.377Z,99.99
2019-05-12T06:26:35.754Z,99.99
2019-05-12T06:27:24.411Z,99.99
2019-05-12T06:28:26.067Z,99.99
2019-05-12T06:29:27.029Z,99.99
2019-05-12T06:30:24.325Z,99.99
2019-05-12T06:31:33.174Z,99.99
2019-05-12T06:32:25.056Z,99.99
2019-05-12T06:33:36.183Z,99.99
2019-05-12T06:34:26.451Z,99.99
2019-05-12T06:35:24.171Z,99.99
2019-05-12T06:36:27.506Z,99.99
2019-05-12T06:37:26.261Z,99.99
2019-05-12T06:38:26.251Z,99.99
2019-05-12T06:39:26.135Z,99.99
2019-05-12T06:40:24.451Z,99.99
2019-05-12T06:41:28.343Z,99.99
2019-05-12T06:42:26.791Z,99.99
2019-05-12T06:43:24.395Z,99.99
2019-05-12T06:44:24.158Z,99.99
2019-05-12T06:45:28.261Z,99.99
2019-05-12T06:46:28.251Z,99.99
2019-05-12T06:47:26.582Z,99.99
2019-05-12T06:48:33.199Z,99.99
2019-05-12T06:49:24.732Z,99.99
2019-05-12T06:50:28.505Z,99.99
2019-05-12T06:51:28.016Z,99.99
2019-05-12T06:52:26.425Z,99.99
2019-05-12T06:53:33.601Z,99.99
2019-05-12T06:54:24.729Z,99.99
2019-05-12T06:55:28.511Z,99.99
2019-05-12T06:56:26.181Z,99.99
2019-05-12T06:57:30.967Z,99.99
2019-05-12T06:58:34.354Z,99.99
2019-05-12T06:59:26.304Z,99.99
2019-05-12T07:00:30.592Z,99.99
2019-05-12T07:01:27.522Z,99.99
2019-05-12T07:02:24.530Z,99.99
2019-05-12T07:03:30.410Z,99.99
2019-05-12T07:04:26.670Z,99.99
2019-05-12T07:05:27.954Z,99.99
2019-05-12T07:06:28.047Z,99.99
2019-05-12T07:07:33.299Z,99.99
2019-05-12T07:08:38.200Z,99.99
2019-05-12T07:09:32.488Z,99.99
2019-05-12T07:10:44.004Z,99.99
2019-05-12T07:11:26.978Z,99.99
2019-05-12T07:12:39.736Z,99.99
2019-05-12T07:13:34.214Z,99.99
2019-05-12T07:14:29.805Z,99.99
2019-05-12T07:15:29.209Z,99.99
2019-05-12T07:16:34.074Z,99.99
2019-05-12T07:17:26.546Z,99.99
2019-05-12T07:18:36.934Z,99.99
2019-05-12T07:19:29.684Z,99.99
2019-05-12T07:20:29.062Z,99.99
2019-05-12T07:21:29.585Z,99.99
2019-05-12T07:22:31.198Z,99.99
2019-05-12T07:23:30.103Z,99.99
2019-05-12T07:24:26.645Z,99.99
2019-05-12T07:25:36.695Z,99.99
2019-05-12T07:26:26.185Z,99.99
2019-05-12T07:27:39.649Z,99.99
2019-05-12T07:28:30.265Z,99.99
2019-05-12T07:29:26.493Z,99.99
2019-05-12T07:30:24.180Z,99.99
2019-05-12T07:31:26.160Z,99.99
2019-05-12T07:32:27.202Z,99.99
2019-05-12T07:33:32.673Z,99.99
2019-05-12T07:34:27.218Z,99.99
2019-05-12T07:35:26.608Z,99.99
2019-05-12T07:36:26.819Z,99.99
2019-05-12T07:37:26.303Z,99.99
2019-05-12T07:38:28.273Z,99.99
2019-05-12T07:39:26.781Z,99.99
2019-05-12T07:40:34.619Z,99.99
2019-05-12T07:41:26.286Z,99.99
2019-05-12T07:42:39.275Z,99.99
2019-05-12T07:43:24.352Z,99.99
2019-05-12T07:44:31.964Z,99.99
2019-05-12T07:45:27.773Z,99.99
2019-05-12T07:46:28.047Z,99.99
2019-05-12T07:47:30.539Z,99.99
2019-05-12T07:48:26.105Z,99.99
2019-05-12T07:49:38.484Z,99.99
2019-05-12T07:50:29.923Z,99.99
2019-05-12T07:51:30.207Z,99.99
2019-05-12T07:52:26.793Z,99.99
2019-05-12T07:53:26.777Z,99.99
2019-05-12T07:54:29.278Z,99.99
2019-05-12T07:55:26.360Z,99.99
2019-05-12T07:56:33.413Z,99.99
2019-05-12T07:57:25.304Z,99.99
2019-05-12T07:58:26.768Z,99.99
2019-05-12T07:59:40.725Z,99.99
2019-05-12T08:00:28.319Z,99.99
2019-05-12T08:01:26.220Z,99.99
2019-05-12T08:02:35.659Z,99.99
2019-05-12T08:03:27.439Z,99.99
2019-05-12T08:04:31.521Z,99.99
2019-05-12T08:05:27.369Z,99.99
2019-05-12T08:06:24.449Z,99.99
2019-05-12T08:07:31.090Z,99.99
2019-05-12T08:08:26.299Z,99.99
2019-05-12T08:09:36.286Z,99.99
2019-05-12T08:10:26.135Z,99.99
2019-05-12T08:11:28.659Z,99.99
2019-05-12T08:12:26.579Z,99.99
2019-05-12T08:13:30.760Z,99.99
2019-05-12T08:14:33.139Z,99.99
2019-05-12T08:15:24.721Z,99.99
2019-05-12T08:16:34.636Z,99.99
2019-05-12T08:17:28.285Z,99.99
2019-05-12T08:18:30.398Z,99.99
2019-05-12T08:19:31.067Z,99.99
2019-05-12T08:20:26.483Z,99.99
2019-05-12T08:21:24.451Z,99.99
2019-05-12T08:22:31.620Z,99.99
2019-05-12T08:23:26.304Z,99.99
2019-05-12T08:24:26.519Z,99.99
2019-05-12T08:25:30.260Z,99.99
2019-05-12T08:26:26.479Z,99.99
2019-05-12T08:27:26.167Z,99.99
2019-05-12T08:28:40.300Z,99.99
2019-05-12T08:29:27.014Z,99.99
2019-05-12T08:30:26.740Z,99.99
2019-05-12T08:31:32.405Z,99.99
2019-05-12T08:32:27.279Z,99.99
2019-05-12T08:33:26.595Z,99.99
2019-05-12T08:34:26.347Z,99.99
2019-05-12T08:35:35.792Z,99.99
2019-05-12T08:36:26.307Z,99.99
2019-05-12T08:37:27.088Z,99.99
2019-05-12T08:38:24.922Z,99.99
2019-05-12T08:39:28.021Z,99.99
2019-05-12T08:40:24.772Z,99.99
2019-05-12T08:41:26.212Z,99.99
2019-05-12T08:42:26.528Z,99.99
2019-05-12T08:43:26.636Z,99.99
2019-05-12T08:44:40.340Z,99.99
2019-05-12T08:45:34.726Z,99.99
2019-05-12T08:46:26.878Z,99.99
2019-05-12T08:47:28.859Z,99.99
2019-05-12T08:48:27.599Z,99.8
2019-05-12T08:49:26.208Z,98.85
2019-05-12T08:50:36.089Z,99.08
2019-05-12T08:51:29.415Z,97.8
2019-05-12T08:52:30.442Z,98.37
2019-05-12T08:53:28.055Z,97.22
2019-05-12T08:54:25.980Z,96.56
2019-05-12T08:55:35.629Z,96.32
2019-05-12T08:56:28.527Z,95.17
2019-05-12T08:57:26.710Z,94.6
2019-05-12T08:58:47.144Z,93.17
2019-05-12T08:59:29.284Z,93.31
2019-05-12T09:00:26.366Z,92.69
2019-05-12T09:01:34.308Z,92.12
2019-05-12T09:02:26.644Z,92.64
2019-05-12T09:03:33.493Z,92.83
2019-05-12T09:04:24.865Z,92.36
2019-05-12T09:05:38.355Z,92.4
2019-05-12T09:06:27.241Z,92.16
2019-05-12T09:07:30.212Z,91.59
2019-05-12T09:08:26.806Z,91.93
2019-05-12T09:09:25.931Z,92.5
2019-05-12T09:10:26.247Z,91.55
2019-05-12T09:11:25.371Z,91.26
2019-05-12T09:12:25.973Z,90.11
2019-05-12T09:13:26.838Z,91.16
2019-05-12T09:14:26.495Z,90.64
2019-05-12T09:15:26.625Z,91.55
2019-05-12T09:16:27.004Z,91.69
2019-05-12T09:17:26.331Z,89.77
2019-05-12T09:18:34.928Z,88.68
2019-05-12T09:19:29.271Z,88.05
2019-05-12T09:20:26.864Z,88.01
2019-05-12T09:21:34.763Z,88.05
2019-05-12T09:22:37.029Z,88.15
2019-05-12T09:23:26.648Z,87.48
2019-05-12T09:24:29.893Z,86.43
2019-05-12T09:25:26.619Z,86.14
2019-05-12T09:26:30.761Z,85.71
2019-05-12T09:27:27.121Z,85.66
2019-05-12T09:28:26.648Z,86.28
2019-05-12T09:29:25.230Z,85.66
2019-05-12T09:30:26.763Z,86.52
2019-05-12T09:31:30.968Z,85.71
2019-05-12T09:32:26.551Z,85.75
2019-05-12T09:33:34.569Z,85.75
2019-05-12T09:34:26.559Z,85.13
2019-05-12T09:35:28.511Z,84.08
2019-05-12T09:36:26.860Z,83.27
2019-05-12T09:37:30.800Z,84.37
2019-05-12T09:38:28.469Z,85.75
2019-05-12T09:39:26.186Z,86.08
2019-05-12T09:40:26.972Z,86.04
2019-05-12T09:41:26.674Z,86.04
2019-05-12T09:42:30.933Z,86.23
2019-05-12T09:43:26.742Z,85.75
2019-05-12T09:44:33.880Z,87.48
2019-05-12T09:45:24.378Z,87.95
2019-05-12T09:46:28.238Z,88.05
2019-05-12T09:47:30.177Z,88.2
2019-05-12T09:48:24.738Z,88.68
2019-05-12T09:49:38.580Z,89.25
2019-05-12T09:50:26.040Z,89.44
2019-05-12T09:51:26.406Z,89.06
2019-05-12T09:52:29.890Z,88.48
2019-05-12T09:53:26.416Z,88.29
2019-05-12T09:54:40.712Z,88.68
2019-05-12T09:55:27.381Z,89.06
2019-05-12T09:56:26.692Z,88.68
2019-05-12T09:57:26.488Z,88.58
2019-05-12T09:58:28.315Z,88.01
2019-05-12T09:59:28.178Z,87.34
2019-05-12T10:00:30.257Z,86.47
2019-05-12T10:01:29.145Z,85.62
2019-05-12T10:02:26.791Z,85.81
2019-05-12T10:03:30.737Z,85.29
2019-05-12T10:04:24.382Z,85.42
2019-05-12T10:05:24.385Z,85.71
2019-05-12T10:06:24.645Z,86.63
2019-05-12T10:07:24.433Z,85.62
2019-05-12T10:08:29.187Z,85.52
2019-05-12T10:12:59.454Z,85.24
2019-05-12T10:14:06.264Z,83.46
2019-05-12T10:14:59.449Z,82.59
2019-05-12T10:16:04.753Z,80.96
2019-05-12T10:16:59.449Z,80.29
2019-05-12T10:18:06.266Z,80.81
2019-05-12T10:18:59.472Z,79.89
2019-05-12T10:20:00.852Z,79.8
2019-05-12T10:20:59.468Z,79.28
2019-05-12T10:22:02.799Z,78.38
2019-05-12T10:22:59.482Z,78.09
2019-05-12T10:24:05.003Z,78.57
2019-05-12T10:25:03.874Z,78.47
2019-05-12T10:26:09.365Z,79.28
2019-05-12T10:26:59.457Z,79.41
2019-05-12T10:28:02.837Z,79.6
2019-05-12T10:29:14.028Z,80.04
2019-05-12T10:30:03.096Z,80.38
2019-05-12T10:30:59.679Z,79.72
2019-05-12T10:31:59.473Z,79.24
2019-05-12T10:32:59.473Z,78.7
2019-05-12T10:34:03.017Z,79.1
2019-05-12T10:34:59.467Z,80.35
2019-05-12T10:36:08.467Z,79.87
2019-05-12T10:36:59.497Z,79.24
2019-05-12T10:38:06.100Z,78.61
2019-05-12T10:38:59.475Z,78.99
2019-05-12T10:39:59.494Z,79.37
2019-05-12T10:40:59.604Z,77.97
2019-05-12T10:41:59.507Z,77.75
2019-05-12T10:42:59.542Z,77.21
2019-05-12T10:44:00.524Z,76.35
2019-05-12T10:44:59.533Z,75.58
2019-05-12T10:45:59.492Z,75.01
2019-05-12T10:46:59.495Z,74.62
2019-05-12T10:47:59.466Z,74.57
2019-05-12T10:48:59.617Z,73.41
2019-05-12T10:49:59.602Z,73.13
2019-05-12T10:50:59.507Z,72.27
2019-05-12T10:51:59.516Z,72.78
2019-05-12T10:52:59.487Z,72.45
2019-05-12T10:54:13.013Z,72.59
2019-05-12T10:54:59.606Z,71.86
2019-05-12T10:55:59.568Z,71.15
2019-05-12T10:56:59.509Z,70.8
2019-05-12T10:58:07.013Z,71.21
2019-05-12T10:58:59.518Z,70.25
2019-05-12T10:59:59.570Z,70.06
2019-05-12T11:01:04.967Z,70.21
2019-05-12T11:01:59.528Z,70.35
2019-05-12T11:03:10.721Z,70.06
2019-05-12T11:03:59.513Z,70.03
2019-05-12T11:04:59.539Z,70.83
2019-05-12T11:06:07.643Z,69.58
2019-05-12T11:06:59.533Z,70.19
2019-05-12T11:08:10.901Z,69.74
2019-05-12T11:08:59.507Z,69.65
2019-05-12T11:10:02.889Z,68.91
2019-05-12T11:11:04.235Z,67.54
2019-05-12T11:11:59.526Z,67.5
2019-05-12T11:13:05.692Z,66.93
2019-05-12T11:13:59.575Z,66.89
2019-05-12T11:15:06.578Z,68.46
2019-05-12T11:15:59.531Z,68.98
2019-05-12T11:17:01.997Z,68.5
2019-05-12T11:17:59.564Z,68.27
2019-05-12T11:19:06.224Z,67.92
2019-05-12T11:19:59.581Z,68.5
2019-05-12T11:20:59.594Z,68.24
2019-05-12T11:21:59.570Z,67.47
2019-05-12T11:22:59.616Z,67.76
2019-05-12T11:23:59.673Z,66.61
2019-05-12T11:24:59.577Z,66.16
2019-05-12T11:25:59.571Z,66.8
2019-05-12T11:26:59.657Z,67.16
2019-05-12T11:27:59.602Z,67.73
2019-05-12T11:28:59.656Z,68.02
2019-05-12T11:29:59.555Z,68.88
2019-05-12T11:30:59.894Z,68.02
2019-05-12T11:31:59.673Z,67.69
2019-05-12T11:33:04.265Z,69.13
2019-05-12T11:33:59.619Z,67.83
2019-05-12T11:34:59.702Z,66.96
2019-05-12T11:35:59.592Z,66.39
2019-05-12T11:36:59.698Z,65.75
2019-05-12T11:37:59.883Z,64.12
2019-05-12T11:43:07.344Z,64.85
2019-05-12T11:44:06.855Z,65.33
2019-05-12T11:45:06.784Z,64.09
2019-05-12T11:46:06.866Z,64.05
2019-05-12T11:47:06.815Z,64.56
2019-05-12T11:48:14.287Z,65.88
2019-05-12T11:49:09.491Z,66.93
2019-05-12T11:50:13.187Z,67.73
2019-05-12T11:51:06.860Z,67.73
2019-05-12T11:52:16.522Z,67.73
2019-05-12T11:53:07.126Z,68.08
2019-05-12T11:54:13.627Z,68.66
2019-05-12T11:55:06.935Z,69.39
2019-05-12T11:56:10.647Z,68.78
2019-05-12T11:57:06.865Z,70.25
2019-05-12T11:58:11.864Z,69.23
2019-05-12T11:59:06.857Z,68.56
2019-05-12T12:00:08.089Z,68.21
2019-05-12T12:01:10.949Z,66.58
2019-05-12T12:02:06.876Z,66.1
2019-05-12T12:03:18.038Z,64.4
2019-05-12T12:04:06.877Z,65.62
2019-05-12T12:05:06.840Z,66.03
2019-05-12T12:06:06.948Z,65.81
2019-05-12T12:07:06.930Z,65.52
2019-05-12T12:08:06.838Z,65.62
2019-05-12T12:09:15.136Z,66.74
2019-05-12T12:10:06.831Z,66.51
2019-05-12T12:11:10.412Z,67.57
2019-05-12T12:12:09.970Z,66.71
2019-05-12T12:13:06.961Z,67.02
2019-05-12T12:14:11.704Z,66.86
2019-05-12T12:18:46.504Z,66.58
2019-05-12T12:19:49.051Z,66.8
2019-05-12T12:20:44.231Z,65.23
2019-05-12T12:21:46.002Z,65.01
2019-05-12T12:22:49.881Z,63.79
2019-05-12T12:23:46.857Z,64.31
2019-05-12T12:24:43.610Z,63.7
2019-05-12T12:25:48.400Z,65.27
2019-05-12T12:26:44.469Z,64.12
2019-05-12T12:27:44.242Z,63.99
2019-05-12T12:28:43.484Z,63.48
2019-05-12T12:29:43.855Z,62.19
2019-05-12T12:30:47.170Z,63.79
2019-05-12T12:31:43.365Z,64.59
2019-05-12T12:32:44.320Z,63.25
2019-05-12T12:33:47.073Z,62.74
2019-05-12T12:34:44.029Z,62.84
2019-05-12T12:35:44.296Z,62.36
2019-05-12T12:36:43.558Z,63.42
2019-05-12T12:37:44.823Z,63.38
2019-05-12T12:38:43.981Z,62.13
2019-05-12T12:39:43.426Z,63.28
2019-05-12T12:40:44.119Z,62.42
2019-05-12T12:42:00.011Z,63.25
2019-05-12T12:42:49.445Z,61.84
2019-05-12T12:43:43.259Z,62.01
2019-05-12T12:44:42.431Z,62.61
2019-05-12T12:45:43.513Z,62.42
2019-05-12T12:46:44.022Z,60.69
2019-05-12T12:47:50.545Z,60.31
2019-05-12T12:48:43.923Z,61.24
2019-05-12T12:49:49.308Z,61.17
2019-05-12T12:50:44.513Z,60.95
2019-05-12T12:51:43.503Z,60.38
2019-05-12T12:52:53.338Z,60.66
2019-05-12T12:53:43.733Z,59.8
2019-05-12T12:54:43.825Z,61.02
2019-05-12T12:55:46.418Z,60.57
2019-05-12T12:56:42.513Z,59.77
2019-05-12T12:57:46.193Z,60.79
2019-05-12T12:58:43.939Z,61.66
2019-05-12T12:59:53.555Z,63.79
2019-05-12T13:00:54.391Z,65.14
2019-05-12T13:01:44.240Z,64.59
2019-05-12T13:02:50.565Z,63.16
2019-05-12T13:03:43.493Z,62.77
2019-05-12T13:04:51.157Z,61.4
2019-05-12T13:05:43.805Z,62.65
2019-05-12T13:06:43.711Z,62.77
2019-05-12T13:07:43.932Z,62.36
2019-05-12T13:08:43.369Z,61.4
2019-05-12T13:09:44.057Z,61.62
2019-05-12T13:10:46.905Z,61.81
2019-05-12T13:11:44.419Z,61.4
2019-05-12T13:12:43.655Z,62.01
2019-05-12T13:13:42.592Z,61.27
2019-05-12T13:14:44.304Z,62.42
2019-05-12T13:15:44.362Z,61.55